sensor_id;sensor_type;location;lat;lon;timestamp;temperature;humidity
10304;DHT22;5197;48.152;8.590;2022-12-29T00:00:08;5.40;23.50
10304;DHT22;5197;48.152;8.590;2022-12-29T00:02:36;5.40;23.40
10304;DHT22;5197;48.152;8.590;2022-12-29T00:05:03;5.40;23.60
10304;DHT22;5197;48.152;8.590;2022-12-29T00:07:30;5.40;23.70
10304;DHT22;5197;48.152;8.590;2022-12-29T00:09:57;5.40;23.70
10304;DHT22;5197;48.152;8.590;2022-12-29T00:12:24;6.10;24.10
10304;DHT22;5197;48.152;8.590;2022-12-29T00:14:51;5.40;23.70
10304;DHT22;5197;48.152;8.590;2022-12-29T00:17:37;5.40;23.60
10304;DHT22;5197;48.152;8.590;2022-12-29T00:20:04;5.40;23.60
10304;DHT22;5197;48.152;8.590;2022-12-29T00:22:49;5.40;23.70
10304;DHT22;5197;48.152;8.590;2022-12-29T00:25:36;5.40;23.60
10304;DHT22;5197;48.152;8.590;2022-12-29T00:28:21;5.40;22.80
10304;DHT22;5197;48.152;8.590;2022-12-29T00:31:11;5.40;23.70
10304;DHT22;5197;48.152;8.590;2022-12-29T00:33:58;5.50;23.70
10304;DHT22;5197;48.152;8.590;2022-12-29T00:36:44;5.50;23.60
10304;DHT22;5197;48.152;8.590;2022-12-29T00:39:16;5.40;23.30
10304;DHT22;5197;48.152;8.590;2022-12-29T00:42:08;5.50;23.30
10304;DHT22;5197;48.152;8.590;2022-12-29T00:45:05;5.50;23.20
10304;DHT22;5197;48.152;8.590;2022-12-29T00:47:32;5.50;23.10
10304;DHT22;5197;48.152;8.590;2022-12-29T00:49:59;5.50;23.00
10304;DHT22;5197;48.152;8.590;2022-12-29T00:52:27;5.60;22.90
10304;DHT22;5197;48.152;8.590;2022-12-29T00:54:53;5.60;22.80
10304;DHT22;5197;48.152;8.590;2022-12-29T00:57:20;5.60;22.60
10304;DHT22;5197;48.152;8.590;2022-12-29T00:59:47;5.70;22.60
10304;DHT22;5197;48.152;8.590;2022-12-29T01:02:14;5.60;22.30
10304;DHT22;5197;48.152;8.590;2022-12-29T01:04:42;5.70;22.20
10304;DHT22;5197;48.152;8.590;2022-12-29T01:07:09;5.70;21.80
10304;DHT22;5197;48.152;8.590;2022-12-29T01:09:36;5.80;21.60
10304;DHT22;5197;48.152;8.590;2022-12-29T01:12:21;5.90;21.10
10304;DHT22;5197;48.152;8.590;2022-12-29T01:15:08;6.00;20.90
10304;DHT22;5197;48.152;8.590;2022-12-29T01:17:36;6.00;20.70
10304;DHT22;5197;48.152;8.590;2022-12-29T01:20:03;6.00;20.60
10304;DHT22;5197;48.152;8.590;2022-12-29T01:22:30;6.10;20.30
10304;DHT22;5197;48.152;8.590;2022-12-29T01:24:57;6.10;20.40
10304;DHT22;5197;48.152;8.590;2022-12-29T01:27:24;6.10;20.30
10304;DHT22;5197;48.152;8.590;2022-12-29T01:29:51;6.20;20.00
10304;DHT22;5197;48.152;8.590;2022-12-29T01:32:18;6.20;19.40
10304;DHT22;5197;48.152;8.590;2022-12-29T01:34:45;6.30;19.30
10304;DHT22;5197;48.152;8.590;2022-12-29T01:37:12;6.30;19.20
10304;DHT22;5197;48.152;8.590;2022-12-29T01:39:39;6.30;19.20
10304;DHT22;5197;48.152;8.590;2022-12-29T01:42:19;6.40;19.40
10304;DHT22;5197;48.152;8.590;2022-12-29T01:44:54;6.40;19.20
10304;DHT22;5197;48.152;8.590;2022-12-29T01:50:39;6.50;19.20
10304;DHT22;5197;48.152;8.590;2022-12-29T01:53:09;6.50;19.30
10304;DHT22;5197;48.152;8.590;2022-12-29T01:55:44;6.50;19.30
10304;DHT22;5197;48.152;8.590;2022-12-29T01:58:14;6.60;19.40
10304;DHT22;5197;48.152;8.590;2022-12-29T02:00:42;6.60;19.40
10304;DHT22;5197;48.152;8.590;2022-12-29T02:03:10;6.60;19.40
10304;DHT22;5197;48.152;8.590;2022-12-29T02:05:43;6.60;18.70
10304;DHT22;5197;48.152;8.590;2022-12-29T02:08:13;6.60;18.30
10304;DHT22;5197;48.152;8.590;2022-12-29T02:10:40;6.70;18.20
10304;DHT22;5197;48.152;8.590;2022-12-29T02:13:08;6.70;17.80
10304;DHT22;5197;48.152;8.590;2022-12-29T02:44:13;6.80;15.60
10304;DHT22;5197;48.152;8.590;2022-12-29T02:49:22;6.80;15.80
10304;DHT22;5197;48.152;8.590;2022-12-29T02:52:04;6.90;15.40
10304;DHT22;5197;48.152;8.590;2022-12-29T02:54:33;6.90;15.20
10304;DHT22;5197;48.152;8.590;2022-12-29T02:57:36;7.00;15.00
10304;DHT22;5197;48.152;8.590;2022-12-29T03:00:09;7.00;15.00
10304;DHT22;5197;48.152;8.590;2022-12-29T03:08:49;6.90;14.00
10304;DHT22;5197;48.152;8.590;2022-12-29T03:11:17;6.80;14.60
10304;DHT22;5197;48.152;8.590;2022-12-29T03:14:11;6.80;15.10
10304;DHT22;5197;48.152;8.590;2022-12-29T03:17:07;6.80;15.20
10304;DHT22;5197;48.152;8.590;2022-12-29T03:19:40;6.80;15.10
10304;DHT22;5197;48.152;8.590;2022-12-29T03:22:17;6.80;15.10
10304;DHT22;5197;48.152;8.590;2022-12-29T03:25:10;6.90;15.10
10304;DHT22;5197;48.152;8.590;2022-12-29T03:27:55;6.80;14.80
10304;DHT22;5197;48.152;8.590;2022-12-29T03:30:23;6.90;16.00
10304;DHT22;5197;48.152;8.590;2022-12-29T03:32:57;6.90;15.00
10304;DHT22;5197;48.152;8.590;2022-12-29T03:35:28;6.90;14.80
10304;DHT22;5197;48.152;8.590;2022-12-29T03:40:33;7.00;14.10
10304;DHT22;5197;48.152;8.590;2022-12-29T03:43:02;7.00;14.00
10304;DHT22;5197;48.152;8.590;2022-12-29T03:45:29;7.00;14.00
10304;DHT22;5197;48.152;8.590;2022-12-29T03:47:56;7.00;13.90
10304;DHT22;5197;48.152;8.590;2022-12-29T03:50:23;7.00;14.00
10304;DHT22;5197;48.152;8.590;2022-12-29T03:52:50;7.00;14.00
10304;DHT22;5197;48.152;8.590;2022-12-29T03:55:17;7.00;14.00
10304;DHT22;5197;48.152;8.590;2022-12-29T03:57:44;7.00;14.00
10304;DHT22;5197;48.152;8.590;2022-12-29T04:00:11;7.00;14.10
10304;DHT22;5197;48.152;8.590;2022-12-29T04:02:39;6.90;14.20
10304;DHT22;5197;48.152;8.590;2022-12-29T04:05:06;6.90;14.40
10304;DHT22;5197;48.152;8.590;2022-12-29T04:07:33;6.90;14.40
10304;DHT22;5197;48.152;8.590;2022-12-29T04:10:00;6.90;14.40
10304;DHT22;5197;48.152;8.590;2022-12-29T04:12:27;6.80;14.40
10304;DHT22;5197;48.152;8.590;2022-12-29T04:14:54;6.80;14.60
10304;DHT22;5197;48.152;8.590;2022-12-29T04:17:21;6.80;14.60
10304;DHT22;5197;48.152;8.590;2022-12-29T04:19:48;6.80;14.70
10304;DHT22;5197;48.152;8.590;2022-12-29T04:22:15;6.80;14.90
10304;DHT22;5197;48.152;8.590;2022-12-29T04:24:44;6.80;14.80
10304;DHT22;5197;48.152;8.590;2022-12-29T04:27:11;6.80;15.90
10304;DHT22;5197;48.152;8.590;2022-12-29T04:29:37;6.80;14.90
10304;DHT22;5197;48.152;8.590;2022-12-29T04:32:04;6.80;14.70
10304;DHT22;5197;48.152;8.590;2022-12-29T04:34:31;6.90;14.70
10304;DHT22;5197;48.152;8.590;2022-12-29T04:36:59;6.90;15.50
10304;DHT22;5197;48.152;8.590;2022-12-29T04:39:26;6.90;14.40
10304;DHT22;5197;48.152;8.590;2022-12-29T04:41:53;7.00;14.30
10304;DHT22;5197;48.152;8.590;2022-12-29T04:44:20;7.00;14.10
10304;DHT22;5197;48.152;8.590;2022-12-29T04:46:46;7.10;14.20
10304;DHT22;5197;48.152;8.590;2022-12-29T04:49:13;7.10;14.30
10304;DHT22;5197;48.152;8.590;2022-12-29T04:51:40;8.10;14.70
10304;DHT22;5197;48.152;8.590;2022-12-29T04:54:07;7.20;14.10
10304;DHT22;5197;48.152;8.590;2022-12-29T04:56:34;7.20;14.00
10304;DHT22;5197;48.152;8.590;2022-12-29T04:59:01;7.20;14.10
10304;DHT22;5197;48.152;8.590;2022-12-29T05:01:28;7.20;13.90
10304;DHT22;5197;48.152;8.590;2022-12-29T05:03:55;7.30;13.90
10304;DHT22;5197;48.152;8.590;2022-12-29T05:06:22;7.30;13.90
10304;DHT22;5197;48.152;8.590;2022-12-29T05:08:49;7.30;13.90
10304;DHT22;5197;48.152;8.590;2022-12-29T05:11:16;7.30;13.90
10304;DHT22;5197;48.152;8.590;2022-12-29T05:13:45;7.30;13.90
10304;DHT22;5197;48.152;8.590;2022-12-29T05:16:13;7.30;13.80
10304;DHT22;5197;48.152;8.590;2022-12-29T05:18:40;7.30;13.60
10304;DHT22;5197;48.152;8.590;2022-12-29T05:21:07;7.30;13.50
10304;DHT22;5197;48.152;8.590;2022-12-29T05:23:34;7.30;13.40
10304;DHT22;5197;48.152;8.590;2022-12-29T05:26:01;7.30;13.60
10304;DHT22;5197;48.152;8.590;2022-12-29T05:28:31;7.30;13.60
10304;DHT22;5197;48.152;8.590;2022-12-29T05:30:58;7.30;13.50
10304;DHT22;5197;48.152;8.590;2022-12-29T05:33:25;7.30;13.50
10304;DHT22;5197;48.152;8.590;2022-12-29T05:35:52;7.30;13.60
10304;DHT22;5197;48.152;8.590;2022-12-29T05:38:19;7.30;13.70
10304;DHT22;5197;48.152;8.590;2022-12-29T05:40:45;7.30;13.90
10304;DHT22;5197;48.152;8.590;2022-12-29T05:43:12;7.30;13.90
10304;DHT22;5197;48.152;8.590;2022-12-29T05:45:40;7.30;14.10
10304;DHT22;5197;48.152;8.590;2022-12-29T05:48:07;7.40;14.30
10304;DHT22;5197;48.152;8.590;2022-12-29T05:50:34;7.40;14.40
10304;DHT22;5197;48.152;8.590;2022-12-29T05:53:01;7.40;14.40
10304;DHT22;5197;48.152;8.590;2022-12-29T05:55:27;7.40;14.70
10304;DHT22;5197;48.152;8.590;2022-12-29T05:57:54;7.40;14.70
10304;DHT22;5197;48.152;8.590;2022-12-29T06:00:21;7.40;14.80
10304;DHT22;5197;48.152;8.590;2022-12-29T06:02:48;7.50;15.00
10304;DHT22;5197;48.152;8.590;2022-12-29T06:05:16;7.50;15.00
10304;DHT22;5197;48.152;8.590;2022-12-29T06:07:42;7.50;15.00
10304;DHT22;5197;48.152;8.590;2022-12-29T06:10:11;7.60;15.20
10304;DHT22;5197;48.152;8.590;2022-12-29T06:12:38;7.60;15.30
10304;DHT22;5197;48.152;8.590;2022-12-29T06:15:05;7.60;15.30
10304;DHT22;5197;48.152;8.590;2022-12-29T06:17:33;7.60;15.30
10304;DHT22;5197;48.152;8.590;2022-12-29T06:20:00;7.70;15.30
10304;DHT22;5197;48.152;8.590;2022-12-29T06:22:28;7.70;15.30
10304;DHT22;5197;48.152;8.590;2022-12-29T06:24:55;7.70;15.30
10304;DHT22;5197;48.152;8.590;2022-12-29T06:27:30;7.70;15.30
10304;DHT22;5197;48.152;8.590;2022-12-29T06:29:56;7.70;15.40
10304;DHT22;5197;48.152;8.590;2022-12-29T06:32:23;7.70;15.50
10304;DHT22;5197;48.152;8.590;2022-12-29T06:34:50;7.70;15.30
10304;DHT22;5197;48.152;8.590;2022-12-29T06:37:17;7.80;15.30
10304;DHT22;5197;48.152;8.590;2022-12-29T06:39:44;7.80;15.30
10304;DHT22;5197;48.152;8.590;2022-12-29T06:42:11;7.80;15.30
10304;DHT22;5197;48.152;8.590;2022-12-29T06:44:38;7.80;15.30
10304;DHT22;5197;48.152;8.590;2022-12-29T06:47:05;7.80;15.30
10304;DHT22;5197;48.152;8.590;2022-12-29T06:49:32;7.80;15.30
10304;DHT22;5197;48.152;8.590;2022-12-29T06:51:59;7.90;15.40
10304;DHT22;5197;48.152;8.590;2022-12-29T06:54:27;7.80;15.20
10304;DHT22;5197;48.152;8.590;2022-12-29T06:56:54;7.80;15.20
10304;DHT22;5197;48.152;8.590;2022-12-29T06:59:21;7.80;15.30
10304;DHT22;5197;48.152;8.590;2022-12-29T07:01:48;7.80;15.50
10304;DHT22;5197;48.152;8.590;2022-12-29T07:04:15;7.80;15.60
10304;DHT22;5197;48.152;8.590;2022-12-29T07:06:43;7.80;15.70
10304;DHT22;5197;48.152;8.590;2022-12-29T07:09:10;7.80;15.70
10304;DHT22;5197;48.152;8.590;2022-12-29T07:11:37;7.80;15.90
10304;DHT22;5197;48.152;8.590;2022-12-29T07:14:04;7.80;15.90
10304;DHT22;5197;48.152;8.590;2022-12-29T07:16:31;7.80;17.00
10304;DHT22;5197;48.152;8.590;2022-12-29T07:18:58;7.70;16.00
10304;DHT22;5197;48.152;8.590;2022-12-29T07:21:26;7.70;16.00
10304;DHT22;5197;48.152;8.590;2022-12-29T07:23:54;7.70;15.80
10304;DHT22;5197;48.152;8.590;2022-12-29T07:26:21;7.70;15.50
10304;DHT22;5197;48.152;8.590;2022-12-29T07:28:49;7.80;15.50
10304;DHT22;5197;48.152;8.590;2022-12-29T07:31:18;7.80;15.50
10304;DHT22;5197;48.152;8.590;2022-12-29T07:33:46;7.80;15.30
10304;DHT22;5197;48.152;8.590;2022-12-29T07:36:15;7.80;15.00
10304;DHT22;5197;48.152;8.590;2022-12-29T07:38:42;7.80;15.20
10304;DHT22;5197;48.152;8.590;2022-12-29T07:41:09;7.80;14.90
10304;DHT22;5197;48.152;8.590;2022-12-29T07:43:37;7.80;14.80
10304;DHT22;5197;48.152;8.590;2022-12-29T07:46:04;7.70;14.60
10304;DHT22;5197;48.152;8.590;2022-12-29T07:48:31;7.70;14.70
10304;DHT22;5197;48.152;8.590;2022-12-29T07:51:00;7.70;14.60
10304;DHT22;5197;48.152;8.590;2022-12-29T07:53:27;7.80;14.60
10304;DHT22;5197;48.152;8.590;2022-12-29T07:55:54;7.80;14.60
10304;DHT22;5197;48.152;8.590;2022-12-29T07:58:20;7.80;14.60
10304;DHT22;5197;48.152;8.590;2022-12-29T08:00:47;7.80;14.50
10304;DHT22;5197;48.152;8.590;2022-12-29T08:03:19;7.90;14.50
10304;DHT22;5197;48.152;8.590;2022-12-29T08:05:46;7.90;14.40
10304;DHT22;5197;48.152;8.590;2022-12-29T08:08:13;7.90;14.40
10304;DHT22;5197;48.152;8.590;2022-12-29T08:10:40;7.90;14.40
10304;DHT22;5197;48.152;8.590;2022-12-29T08:13:07;7.90;14.30
10304;DHT22;5197;48.152;8.590;2022-12-29T08:15:34;8.00;14.40
10304;DHT22;5197;48.152;8.590;2022-12-29T08:18:02;8.00;14.90
10304;DHT22;5197;48.152;8.590;2022-12-29T08:20:29;8.00;14.30
10304;DHT22;5197;48.152;8.590;2022-12-29T08:22:56;8.10;14.50
10304;DHT22;5197;48.152;8.590;2022-12-29T08:25:23;8.10;15.50
10304;DHT22;5197;48.152;8.590;2022-12-29T08:27:50;8.10;14.60
10304;DHT22;5197;48.152;8.590;2022-12-29T08:30:17;8.10;14.70
10304;DHT22;5197;48.152;8.590;2022-12-29T08:32:44;8.10;14.90
10304;DHT22;5197;48.152;8.590;2022-12-29T08:35:11;8.30;15.40
10304;DHT22;5197;48.152;8.590;2022-12-29T08:37:39;8.10;15.20
10304;DHT22;5197;48.152;8.590;2022-12-29T08:40:06;8.10;15.60
10304;DHT22;5197;48.152;8.590;2022-12-29T08:42:34;8.10;15.90
10304;DHT22;5197;48.152;8.590;2022-12-29T08:45:01;8.10;16.30
10304;DHT22;5197;48.152;8.590;2022-12-29T08:47:28;8.10;16.70
10304;DHT22;5197;48.152;8.590;2022-12-29T08:49:55;8.10;17.20
10304;DHT22;5197;48.152;8.590;2022-12-29T08:52:22;8.00;17.60
10304;DHT22;5197;48.152;8.590;2022-12-29T08:54:49;8.00;18.00
10304;DHT22;5197;48.152;8.590;2022-12-29T08:57:16;8.00;18.50
10304;DHT22;5197;48.152;8.590;2022-12-29T08:59:44;8.00;19.30
10304;DHT22;5197;48.152;8.590;2022-12-29T09:02:11;8.00;21.20
10304;DHT22;5197;48.152;8.590;2022-12-29T09:04:44;8.00;20.30
10304;DHT22;5197;48.152;8.590;2022-12-29T09:07:11;8.00;20.20
10304;DHT22;5197;48.152;8.590;2022-12-29T09:09:38;8.00;20.20
10304;DHT22;5197;48.152;8.590;2022-12-29T09:12:05;8.00;20.20
10304;DHT22;5197;48.152;8.590;2022-12-29T09:14:32;8.00;20.30
10304;DHT22;5197;48.152;8.590;2022-12-29T09:16:59;8.00;20.20
10304;DHT22;5197;48.152;8.590;2022-12-29T09:19:44;8.00;20.20
10304;DHT22;5197;48.152;8.590;2022-12-29T09:22:11;8.10;20.30
10304;DHT22;5197;48.152;8.590;2022-12-29T09:24:38;8.10;20.30
10304;DHT22;5197;48.152;8.590;2022-12-29T09:27:06;8.10;20.30
10304;DHT22;5197;48.152;8.590;2022-12-29T09:29:32;8.10;20.30
10304;DHT22;5197;48.152;8.590;2022-12-29T09:31:59;8.10;20.30
10304;DHT22;5197;48.152;8.590;2022-12-29T09:34:27;8.20;20.40
10304;DHT22;5197;48.152;8.590;2022-12-29T09:36:54;8.20;20.40
10304;DHT22;5197;48.152;8.590;2022-12-29T09:39:25;8.30;20.40
10304;DHT22;5197;48.152;8.590;2022-12-29T09:42:43;8.30;20.40
10304;DHT22;5197;48.152;8.590;2022-12-29T09:45:16;8.40;20.50
10304;DHT22;5197;48.152;8.590;2022-12-29T09:47:45;8.40;20.50
10304;DHT22;5197;48.152;8.590;2022-12-29T09:53:03;8.50;20.50
10304;DHT22;5197;48.152;8.590;2022-12-29T09:55:52;10.30;20.90
10304;DHT22;5197;48.152;8.590;2022-12-29T09:58:40;8.60;20.60
10304;DHT22;5197;48.152;8.590;2022-12-29T10:01:34;8.50;20.60
10304;DHT22;5197;48.152;8.590;2022-12-29T10:04:04;8.50;20.50
10304;DHT22;5197;48.152;8.590;2022-12-29T10:15:39;8.60;20.60
10304;DHT22;5197;48.152;8.590;2022-12-29T10:23:47;8.60;20.60
10304;DHT22;5197;48.152;8.590;2022-12-29T10:26:18;8.60;20.60
10304;DHT22;5197;48.152;8.590;2022-12-29T10:29:05;8.60;20.60
10304;DHT22;5197;48.152;8.590;2022-12-29T10:31:46;8.60;20.60
10304;DHT22;5197;48.152;8.590;2022-12-29T10:36:48;8.70;20.70
10304;DHT22;5197;48.152;8.590;2022-12-29T10:39:42;8.70;20.70
10304;DHT22;5197;48.152;8.590;2022-12-29T10:42:25;8.70;20.70
10304;DHT22;5197;48.152;8.590;2022-12-29T10:44:56;8.70;21.40
10304;DHT22;5197;48.152;8.590;2022-12-29T10:47:28;8.70;22.00
10304;DHT22;5197;48.152;8.590;2022-12-29T10:49:57;8.70;22.40
10304;DHT22;5197;48.152;8.590;2022-12-29T10:52:28;8.70;22.50
10304;DHT22;5197;48.152;8.590;2022-12-29T10:55:02;8.70;22.70
10304;DHT22;5197;48.152;8.590;2022-12-29T10:57:38;8.80;22.80
10304;DHT22;5197;48.152;8.590;2022-12-29T11:00:19;8.80;22.90
10304;DHT22;5197;48.152;8.590;2022-12-29T11:02:57;8.80;23.00
10304;DHT22;5197;48.152;8.590;2022-12-29T11:08:11;8.80;23.20
10304;DHT22;5197;48.152;8.590;2022-12-29T11:10:41;8.80;23.60
10304;DHT22;5197;48.152;8.590;2022-12-29T11:13:25;8.80;24.00
10304;DHT22;5197;48.152;8.590;2022-12-29T11:15:52;8.90;23.90
10304;DHT22;5197;48.152;8.590;2022-12-29T11:20:58;8.90;24.30
10304;DHT22;5197;48.152;8.590;2022-12-29T11:23:36;9.00;24.50
10304;DHT22;5197;48.152;8.590;2022-12-29T11:28:38;9.00;24.80
10304;DHT22;5197;48.152;8.590;2022-12-29T11:31:07;9.00;25.00
10304;DHT22;5197;48.152;8.590;2022-12-29T11:33:37;9.00;25.10
10304;DHT22;5197;48.152;8.590;2022-12-29T11:36:17;9.00;25.30
10304;DHT22;5197;48.152;8.590;2022-12-29T11:38:53;9.00;25.20
10304;DHT22;5197;48.152;8.590;2022-12-29T11:41:27;9.10;25.60
10304;DHT22;5197;48.152;8.590;2022-12-29T11:43:58;9.10;26.00
10304;DHT22;5197;48.152;8.590;2022-12-29T11:46:37;9.10;26.20
10304;DHT22;5197;48.152;8.590;2022-12-29T11:49:05;9.20;26.20
10304;DHT22;5197;48.152;8.590;2022-12-29T11:51:47;9.20;26.60
10304;DHT22;5197;48.152;8.590;2022-12-29T11:54:20;9.30;26.30
10304;DHT22;5197;48.152;8.590;2022-12-29T11:56:50;9.30;26.40
10304;DHT22;5197;48.152;8.590;2022-12-29T11:59:36;9.40;26.10
10304;DHT22;5197;48.152;8.590;2022-12-29T12:02:15;9.50;25.70
10304;DHT22;5197;48.152;8.590;2022-12-29T12:04:50;9.60;25.50
10304;DHT22;5197;48.152;8.590;2022-12-29T12:07:38;9.60;25.20
10304;DHT22;5197;48.152;8.590;2022-12-29T12:10:12;9.70;24.80
10304;DHT22;5197;48.152;8.590;2022-12-29T12:12:49;9.70;24.00
10304;DHT22;5197;48.152;8.590;2022-12-29T12:15:33;9.70;23.70
10304;DHT22;5197;48.152;8.590;2022-12-29T12:18:33;9.80;23.80
10304;DHT22;5197;48.152;8.590;2022-12-29T12:21:29;9.80;23.40
10304;DHT22;5197;48.152;8.590;2022-12-29T12:26:55;9.90;23.10
10304;DHT22;5197;48.152;8.590;2022-12-29T12:30:03;9.90;22.50
10304;DHT22;5197;48.152;8.590;2022-12-29T12:40:56;10.00;20.70
10304;DHT22;5197;48.152;8.590;2022-12-29T12:43:35;10.00;20.70
10304;DHT22;5197;48.152;8.590;2022-12-29T12:56:40;10.10;17.70
10304;DHT22;5197;48.152;8.590;2022-12-29T13:02:08;10.20;18.20
10304;DHT22;5197;48.152;8.590;2022-12-29T13:20:50;10.30;16.20
10304;DHT22;5197;48.152;8.590;2022-12-29T13:26:08;10.40;12.80
10304;DHT22;5197;48.152;8.590;2022-12-29T13:29:33;10.40;15.20
10304;DHT22;5197;48.152;8.590;2022-12-29T13:31:57;10.50;14.30
10304;DHT22;5197;48.152;8.590;2022-12-29T13:35:28;10.50;14.80
10304;DHT22;5197;48.152;8.590;2022-12-29T13:37:26;10.50;15.00
10304;DHT22;5197;48.152;8.590;2022-12-29T13:40:01;10.60;15.00
10304;DHT22;5197;48.152;8.590;2022-12-29T13:42:30;10.60;14.70
10304;DHT22;5197;48.152;8.590;2022-12-29T13:45:05;10.60;14.00
10304;DHT22;5197;48.152;8.590;2022-12-29T13:47:46;10.60;13.40
10304;DHT22;5197;48.152;8.590;2022-12-29T13:50:19;10.70;12.70
10304;DHT22;5197;48.152;8.590;2022-12-29T13:56:09;10.70;12.70
10304;DHT22;5197;48.152;8.590;2022-12-29T13:58:52;10.70;12.80
10304;DHT22;5197;48.152;8.590;2022-12-29T14:01:39;10.70;12.50
10304;DHT22;5197;48.152;8.590;2022-12-29T14:04:14;10.40;11.80
10304;DHT22;5197;48.152;8.590;2022-12-29T14:06:41;10.60;11.90
10304;DHT22;5197;48.152;8.590;2022-12-29T14:12:02;10.60;11.60
10304;DHT22;5197;48.152;8.590;2022-12-29T14:14:44;10.60;11.90
10304;DHT22;5197;48.152;8.590;2022-12-29T14:17:12;10.60;11.90
10304;DHT22;5197;48.152;8.590;2022-12-29T14:19:43;10.60;12.00
10304;DHT22;5197;48.152;8.590;2022-12-29T14:22:11;10.60;12.30
10304;DHT22;5197;48.152;8.590;2022-12-29T14:24:42;10.60;12.30
10304;DHT22;5197;48.152;8.590;2022-12-29T14:34:54;10.50;12.50
10304;DHT22;5197;48.152;8.590;2022-12-29T14:42:38;10.50;13.00
10304;DHT22;5197;48.152;8.590;2022-12-29T14:47:39;10.40;13.40
10304;DHT22;5197;48.152;8.590;2022-12-29T14:55:47;10.30;13.70
10304;DHT22;5197;48.152;8.590;2022-12-29T14:58:28;10.30;13.80
10304;DHT22;5197;48.152;8.590;2022-12-29T15:00:55;10.30;14.30
10304;DHT22;5197;48.152;8.590;2022-12-29T15:08:39;10.20;14.70
10304;DHT22;5197;48.152;8.590;2022-12-29T15:11:23;10.20;14.90
10304;DHT22;5197;48.152;8.590;2022-12-29T15:13:51;10.20;14.80
10304;DHT22;5197;48.152;8.590;2022-12-29T15:16:31;10.10;15.20
10304;DHT22;5197;48.152;8.590;2022-12-29T15:18:58;10.10;15.20
10304;DHT22;5197;48.152;8.590;2022-12-29T15:21:32;10.00;15.10
10304;DHT22;5197;48.152;8.590;2022-12-29T15:23:59;10.00;15.00
10304;DHT22;5197;48.152;8.590;2022-12-29T15:26:40;10.00;15.00
10304;DHT22;5197;48.152;8.590;2022-12-29T15:29:37;10.00;14.70
10304;DHT22;5197;48.152;8.590;2022-12-29T15:32:25;10.00;14.80
10304;DHT22;5197;48.152;8.590;2022-12-29T15:34:54;9.90;15.60
10304;DHT22;5197;48.152;8.590;2022-12-29T15:37:28;9.90;15.90
10304;DHT22;5197;48.152;8.590;2022-12-29T15:39:58;9.90;15.80
10304;DHT22;5197;48.152;8.590;2022-12-29T15:45:12;9.90;15.60
10304;DHT22;5197;48.152;8.590;2022-12-29T15:47:41;9.80;16.50
10304;DHT22;5197;48.152;8.590;2022-12-29T15:50:26;9.80;15.70
10304;DHT22;5197;48.152;8.590;2022-12-29T15:52:54;9.80;15.80
10304;DHT22;5197;48.152;8.590;2022-12-29T15:55:41;9.80;15.90
10304;DHT22;5197;48.152;8.590;2022-12-29T15:58:26;9.80;15.30
10304;DHT22;5197;48.152;8.590;2022-12-29T16:01:00;9.80;15.50
10304;DHT22;5197;48.152;8.590;2022-12-29T16:03:30;9.80;15.90
10304;DHT22;5197;48.152;8.590;2022-12-29T16:06:32;9.70;16.00
10304;DHT22;5197;48.152;8.590;2022-12-29T16:09:03;9.80;16.00
10304;DHT22;5197;48.152;8.590;2022-12-29T16:11:51;9.70;16.30
10304;DHT22;5197;48.152;8.590;2022-12-29T16:14:27;9.70;16.20
10304;DHT22;5197;48.152;8.590;2022-12-29T16:16:58;9.70;16.50
10304;DHT22;5197;48.152;8.590;2022-12-29T16:19:35;9.60;16.40
10304;DHT22;5197;48.152;8.590;2022-12-29T16:22:10;9.60;15.90
10304;DHT22;5197;48.152;8.590;2022-12-29T16:24:39;9.60;15.90
10304;DHT22;5197;48.152;8.590;2022-12-29T16:27:07;9.60;15.90
10304;DHT22;5197;48.152;8.590;2022-12-29T16:29:36;9.60;15.70
10304;DHT22;5197;48.152;8.590;2022-12-29T16:34:52;9.60;15.70
10304;DHT22;5197;48.152;8.590;2022-12-29T16:37:30;9.60;15.90
10304;DHT22;5197;48.152;8.590;2022-12-29T16:42:45;9.60;15.80
10304;DHT22;5197;48.152;8.590;2022-12-29T16:48:16;9.60;16.40
10304;DHT22;5197;48.152;8.590;2022-12-29T16:50:39;9.50;16.50
10304;DHT22;5197;48.152;8.590;2022-12-29T16:53:20;9.50;16.50
10304;DHT22;5197;48.152;8.590;2022-12-29T16:55:49;9.50;16.40
10304;DHT22;5197;48.152;8.590;2022-12-29T16:58:23;9.50;16.50
10304;DHT22;5197;48.152;8.590;2022-12-29T17:00:55;9.50;16.60
10304;DHT22;5197;48.152;8.590;2022-12-29T17:03:37;9.40;16.70
10304;DHT22;5197;48.152;8.590;2022-12-29T17:06:05;9.40;16.90
10304;DHT22;5197;48.152;8.590;2022-12-29T17:08:43;9.40;16.90
10304;DHT22;5197;48.152;8.590;2022-12-29T17:11:24;9.40;16.90
10304;DHT22;5197;48.152;8.590;2022-12-29T17:16:48;9.40;16.90
10304;DHT22;5197;48.152;8.590;2022-12-29T17:19:22;9.40;17.10
10304;DHT22;5197;48.152;8.590;2022-12-29T17:21:52;9.40;16.90
10304;DHT22;5197;48.152;8.590;2022-12-29T17:24:19;9.30;16.90
10304;DHT22;5197;48.152;8.590;2022-12-29T17:26:52;9.40;16.90
10304;DHT22;5197;48.152;8.590;2022-12-29T17:29:33;9.40;16.80
10304;DHT22;5197;48.152;8.590;2022-12-29T17:32:04;9.40;16.80
10304;DHT22;5197;48.152;8.590;2022-12-29T17:34:32;9.40;16.80
10304;DHT22;5197;48.152;8.590;2022-12-29T17:36:59;9.40;16.80
10304;DHT22;5197;48.152;8.590;2022-12-29T17:39:26;9.40;17.00
10304;DHT22;5197;48.152;8.590;2022-12-29T17:41:53;9.40;17.00
10304;DHT22;5197;48.152;8.590;2022-12-29T17:44:21;9.40;17.30
10304;DHT22;5197;48.152;8.590;2022-12-29T17:46:48;9.40;17.60
10304;DHT22;5197;48.152;8.590;2022-12-29T17:49:17;9.40;18.00
10304;DHT22;5197;48.152;8.590;2022-12-29T17:51:45;9.40;18.40
10304;DHT22;5197;48.152;8.590;2022-12-29T17:54:18;9.30;18.80
10304;DHT22;5197;48.152;8.590;2022-12-29T17:56:47;9.30;19.20
10304;DHT22;5197;48.152;8.590;2022-12-29T17:59:15;9.30;19.80
10304;DHT22;5197;48.152;8.590;2022-12-29T18:01:43;9.30;20.50
10304;DHT22;5197;48.152;8.590;2022-12-29T18:04:19;9.30;21.10
10304;DHT22;5197;48.152;8.590;2022-12-29T18:06:46;9.20;21.00
10304;DHT22;5197;48.152;8.590;2022-12-29T18:09:13;9.20;21.00
10304;DHT22;5197;48.152;8.590;2022-12-29T18:11:42;9.20;21.00
10304;DHT22;5197;48.152;8.590;2022-12-29T18:14:16;9.10;21.00
10304;DHT22;5197;48.152;8.590;2022-12-29T18:16:43;9.10;20.90
10304;DHT22;5197;48.152;8.590;2022-12-29T18:19:10;9.10;21.00
10304;DHT22;5197;48.152;8.590;2022-12-29T18:21:38;9.10;20.90
10304;DHT22;5197;48.152;8.590;2022-12-29T18:24:12;9.10;20.90
10304;DHT22;5197;48.152;8.590;2022-12-29T18:26:40;9.10;21.00
10304;DHT22;5197;48.152;8.590;2022-12-29T18:29:07;9.10;20.90
10304;DHT22;5197;48.152;8.590;2022-12-29T18:31:34;9.10;20.90
10304;DHT22;5197;48.152;8.590;2022-12-29T18:34:11;9.10;21.00
10304;DHT22;5197;48.152;8.590;2022-12-29T18:36:39;9.00;20.90
10304;DHT22;5197;48.152;8.590;2022-12-29T18:39:06;9.00;20.90
10304;DHT22;5197;48.152;8.590;2022-12-29T18:41:33;9.00;20.90
10304;DHT22;5197;48.152;8.590;2022-12-29T18:44:00;8.90;20.80
10304;DHT22;5197;48.152;8.590;2022-12-29T18:46:27;8.90;20.80
10304;DHT22;5197;48.152;8.590;2022-12-29T18:48:54;8.90;21.30
10304;DHT22;5197;48.152;8.590;2022-12-29T18:51:23;8.80;21.90
10304;DHT22;5197;48.152;8.590;2022-12-29T18:53:51;10.30;22.70
10304;DHT22;5197;48.152;8.590;2022-12-29T18:56:20;8.80;22.90
10304;DHT22;5197;48.152;8.590;2022-12-29T18:58:49;8.80;23.10
10304;DHT22;5197;48.152;8.590;2022-12-29T19:01:21;8.80;23.70
10304;DHT22;5197;48.152;8.590;2022-12-29T19:03:49;8.80;24.00
10304;DHT22;5197;48.152;8.590;2022-12-29T19:06:16;8.70;24.60
10304;DHT22;5197;48.152;8.590;2022-12-29T19:08:43;8.70;25.00